메인 페이지
METAR-TAF:

METAR-TAF

공항 :

브루나이, 브루나이

브루나이 국제공항

위도: 04-56N, 경도: 114-56E, 고도: 22m

현재 날씨관측

예보는 26분 전, 07:00시(UTC)에 발표되었습니다.
8kt
온도 28°C
습도 84%
기압 1009 hPa
시정: 9000m
고도 1400ft 상공 구름 보통
고도 1500ft 상공 구름 조금, 적란운.
고도 14000ft 상공 구름 많음

METAR: WBSB 250700Z 36008KT 9000 SCT014 FEW015CB BKN140 28/25 Q1009 RERA NOSIG

시각: 15:26 (07:26 UTC)

예보

예보는 2 시간 36분 전, 04:50시(UTC)에 발표되었습니다.
예보 대상 시간: 25일 06시부터 26일 12시까지 (UTC)
10kt
시정 10km 이상
고도 1400ft 상공 구름 보통
고도 1500ft 상공 구름 조금, 적란운.
일시적
25일 06시부터 25일 08시까지 (UTC)
시정: 6000m
소나기, 뇌우, 비
전환 중
25일 12시부터 25일 14시까지 (UTC)
북북동6kt

TAF: WBSB 250450Z 2506/2612 26010KT 9999 SCT014 FEW015CB TEMPO 2506/2508 6000 SHRA TSRA BECMG 2512/2514 02006KT

4,000개 이상의 공항 관측 자료 및 예보 (METAR 및 TAF 보고).

지도상에서 검색 가능한 기상관측소가 노란 점과 빨간 점으로 표시되어 있습니다.

기상관측소 명을 보려면 표시 위로 마우스를 이동하세요.

날씨 관측과 예보를 보려면 클릭하세요.

지도 변경 : 확대하려면 엑스 표시가 있는 녹색 버튼, 축소하려면 빼기 표시가 있는 녹색 버튼, 다음 페이지의 지도를 보려면 녹색 화살표를 클릭하세요.


METAR-TAF: